sensor_id;sensor_type;location;lat;lon;timestamp;temperature;humidity
32293;DHT22;43233;48.608;8.838;2022-12-20T00:00:16;3.70;79.60
32293;DHT22;43233;48.608;8.838;2022-12-20T00:02:42;3.70;79.80
32293;DHT22;43233;48.608;8.838;2022-12-20T00:05:08;3.70;79.80
32293;DHT22;43233;48.608;8.838;2022-12-20T00:07:33;3.60;79.90
32293;DHT22;43233;48.608;8.838;2022-12-20T00:09:59;3.70;80.00
32293;DHT22;43233;48.608;8.838;2022-12-20T00:12:25;3.70;80.00
32293;DHT22;43233;48.608;8.838;2022-12-20T00:14:50;3.70;80.20
32293;DHT22;43233;48.608;8.838;2022-12-20T00:17:16;3.60;80.40
32293;DHT22;43233;48.608;8.838;2022-12-20T00:19:43;3.60;80.60
32293;DHT22;43233;48.608;8.838;2022-12-20T00:22:09;3.60;80.60
32293;DHT22;43233;48.608;8.838;2022-12-20T00:24:35;3.60;80.50
32293;DHT22;43233;48.608;8.838;2022-12-20T00:27:00;3.60;80.80
32293;DHT22;43233;48.608;8.838;2022-12-20T00:29:26;3.60;80.90
32293;DHT22;43233;48.608;8.838;2022-12-20T00:31:52;3.60;80.90
32293;DHT22;43233;48.608;8.838;2022-12-20T00:34:17;3.60;81.00
32293;DHT22;43233;48.608;8.838;2022-12-20T00:36:43;3.60;80.80
32293;DHT22;43233;48.608;8.838;2022-12-20T00:39:09;3.60;81.60
32293;DHT22;43233;48.608;8.838;2022-12-20T00:41:35;3.60;81.00
32293;DHT22;43233;48.608;8.838;2022-12-20T00:44:02;3.60;81.20
32293;DHT22;43233;48.608;8.838;2022-12-20T00:46:28;3.60;81.10
32293;DHT22;43233;48.608;8.838;2022-12-20T00:48:54;3.60;81.00
32293;DHT22;43233;48.608;8.838;2022-12-20T00:51:23;3.70;81.10
32293;DHT22;43233;48.608;8.838;2022-12-20T00:53:49;3.70;80.70
32293;DHT22;43233;48.608;8.838;2022-12-20T00:56:15;3.70;80.60
32293;DHT22;43233;48.608;8.838;2022-12-20T00:58:42;3.60;80.50
32293;DHT22;43233;48.608;8.838;2022-12-20T01:01:20;3.60;80.80
32293;DHT22;43233;48.608;8.838;2022-12-20T01:03:46;3.60;81.30
32293;DHT22;43233;48.608;8.838;2022-12-20T01:06:12;3.60;81.40
32293;DHT22;43233;48.608;8.838;2022-12-20T01:08:38;3.60;81.30
32293;DHT22;43233;48.608;8.838;2022-12-20T01:13:32;3.60;80.90
32293;DHT22;43233;48.608;8.838;2022-12-20T01:16:12;3.60;81.30
32293;DHT22;43233;48.608;8.838;2022-12-20T01:18:39;3.60;82.00
32293;DHT22;43233;48.608;8.838;2022-12-20T01:21:06;3.60;81.80
32293;DHT22;43233;48.608;8.838;2022-12-20T01:23:32;3.60;81.60
32293;DHT22;43233;48.608;8.838;2022-12-20T01:26:02;3.70;81.40
32293;DHT22;43233;48.608;8.838;2022-12-20T01:28:30;3.70;80.90
32293;DHT22;43233;48.608;8.838;2022-12-20T01:30:56;3.70;80.90
32293;DHT22;43233;48.608;8.838;2022-12-20T01:33:22;3.70;80.50
32293;DHT22;43233;48.608;8.838;2022-12-20T01:36:19;3.70;80.70
32293;DHT22;43233;48.608;8.838;2022-12-20T01:38:45;3.60;81.20
32293;DHT22;43233;48.608;8.838;2022-12-20T01:41:16;3.60;80.10
32293;DHT22;43233;48.608;8.838;2022-12-20T01:43:55;3.60;80.20
32293;DHT22;43233;48.608;8.838;2022-12-20T01:46:23;3.50;80.30
32293;DHT22;43233;48.608;8.838;2022-12-20T01:51:54;3.50;80.40
32293;DHT22;43233;48.608;8.838;2022-12-20T01:54:42;3.50;80.70
32293;DHT22;43233;48.608;8.838;2022-12-20T01:57:13;3.40;80.70
32293;DHT22;43233;48.608;8.838;2022-12-20T01:59:43;3.50;80.70
32293;DHT22;43233;48.608;8.838;2022-12-20T02:02:11;3.50;80.60
32293;DHT22;43233;48.608;8.838;2022-12-20T02:04:37;3.40;80.80
32293;DHT22;43233;48.608;8.838;2022-12-20T02:07:04;3.40;80.90
32293;DHT22;43233;48.608;8.838;2022-12-20T02:09:32;3.40;80.80
32293;DHT22;43233;48.608;8.838;2022-12-20T02:12:19;3.40;81.00
32293;DHT22;43233;48.608;8.838;2022-12-20T02:15:10;3.40;81.10
32293;DHT22;43233;48.608;8.838;2022-12-20T02:34:39;3.20;82.40
32293;DHT22;43233;48.608;8.838;2022-12-20T02:37:06;3.20;82.40
32293;DHT22;43233;48.608;8.838;2022-12-20T02:39:33;3.20;82.70
32293;DHT22;43233;48.608;8.838;2022-12-20T02:44:31;3.20;82.70
32293;DHT22;43233;48.608;8.838;2022-12-20T02:47:21;3.30;83.10
32293;DHT22;43233;48.608;8.838;2022-12-20T02:49:50;3.20;83.00
32293;DHT22;43233;48.608;8.838;2022-12-20T02:52:17;3.30;82.80
32293;DHT22;43233;48.608;8.838;2022-12-20T02:54:43;3.40;82.80
32293;DHT22;43233;48.608;8.838;2022-12-20T02:57:17;3.30;82.60
32293;DHT22;43233;48.608;8.838;2022-12-20T02:59:57;3.40;82.60
32293;DHT22;43233;48.608;8.838;2022-12-20T03:02:26;3.30;82.60
32293;DHT22;43233;48.608;8.838;2022-12-20T03:04:52;3.30;82.70
32293;DHT22;43233;48.608;8.838;2022-12-20T03:07:20;3.20;82.80
32293;DHT22;43233;48.608;8.838;2022-12-20T03:09:45;3.30;83.10
32293;DHT22;43233;48.608;8.838;2022-12-20T03:12:12;3.20;82.80
32293;DHT22;43233;48.608;8.838;2022-12-20T03:14:40;3.20;82.90
32293;DHT22;43233;48.608;8.838;2022-12-20T03:17:06;3.20;83.00
32293;DHT22;43233;48.608;8.838;2022-12-20T03:19:32;3.20;83.10
32293;DHT22;43233;48.608;8.838;2022-12-20T03:21:58;3.20;83.30
32293;DHT22;43233;48.608;8.838;2022-12-20T03:24:24;3.20;83.50
32293;DHT22;43233;48.608;8.838;2022-12-20T03:26:50;3.20;83.60
32293;DHT22;43233;48.608;8.838;2022-12-20T03:29:15;3.20;83.80
32293;DHT22;43233;48.608;8.838;2022-12-20T03:31:41;3.20;83.60
32293;DHT22;43233;48.608;8.838;2022-12-20T03:34:06;3.10;84.30
32293;DHT22;43233;48.608;8.838;2022-12-20T03:36:32;3.10;84.80
32293;DHT22;43233;48.608;8.838;2022-12-20T03:38:59;3.10;84.70
32293;DHT22;43233;48.608;8.838;2022-12-20T03:41:25;3.10;84.50
32293;DHT22;43233;48.608;8.838;2022-12-20T03:43:50;3.20;84.30
32293;DHT22;43233;48.608;8.838;2022-12-20T03:46:16;3.10;84.10
32293;DHT22;43233;48.608;8.838;2022-12-20T03:48:42;3.10;84.20
32293;DHT22;43233;48.608;8.838;2022-12-20T03:51:07;3.10;84.20
32293;DHT22;43233;48.608;8.838;2022-12-20T03:53:33;3.10;84.40
32293;DHT22;43233;48.608;8.838;2022-12-20T03:55:59;3.20;84.50
32293;DHT22;43233;48.608;8.838;2022-12-20T03:58:24;3.20;84.70
32293;DHT22;43233;48.608;8.838;2022-12-20T04:00:50;3.20;84.80
32293;DHT22;43233;48.608;8.838;2022-12-20T04:03:16;3.20;84.70
32293;DHT22;43233;48.608;8.838;2022-12-20T04:05:42;3.20;84.70
32293;DHT22;43233;48.608;8.838;2022-12-20T04:08:07;3.20;85.40
32293;DHT22;43233;48.608;8.838;2022-12-20T04:10:33;3.30;84.70
32293;DHT22;43233;48.608;8.838;2022-12-20T04:13:18;3.30;84.80
32293;DHT22;43233;48.608;8.838;2022-12-20T04:15:44;3.30;84.80
32293;DHT22;43233;48.608;8.838;2022-12-20T04:18:09;3.30;84.80
32293;DHT22;43233;48.608;8.838;2022-12-20T04:20:35;3.40;84.60
32293;DHT22;43233;48.608;8.838;2022-12-20T04:23:01;3.40;84.30
32293;DHT22;43233;48.608;8.838;2022-12-20T04:25:27;3.40;84.20
32293;DHT22;43233;48.608;8.838;2022-12-20T04:27:52;3.30;84.20
32293;DHT22;43233;48.608;8.838;2022-12-20T04:30:18;3.40;84.20
32293;DHT22;43233;48.608;8.838;2022-12-20T04:32:43;3.40;84.20
32293;DHT22;43233;48.608;8.838;2022-12-20T04:35:09;3.40;84.20
32293;DHT22;43233;48.608;8.838;2022-12-20T04:37:35;3.40;84.10
32293;DHT22;43233;48.608;8.838;2022-12-20T04:40:00;3.40;84.10
32293;DHT22;43233;48.608;8.838;2022-12-20T04:42:26;3.50;84.00
32293;DHT22;43233;48.608;8.838;2022-12-20T04:44:52;3.40;84.00
32293;DHT22;43233;48.608;8.838;2022-12-20T04:47:17;3.40;83.90
32293;DHT22;43233;48.608;8.838;2022-12-20T04:49:43;3.40;84.00
32293;DHT22;43233;48.608;8.838;2022-12-20T04:52:08;3.40;83.90
32293;DHT22;43233;48.608;8.838;2022-12-20T04:54:53;3.50;84.00
32293;DHT22;43233;48.608;8.838;2022-12-20T04:57:18;3.40;84.10
32293;DHT22;43233;48.608;8.838;2022-12-20T04:59:44;3.50;84.20
32293;DHT22;43233;48.608;8.838;2022-12-20T05:02:09;3.50;84.00
32293;DHT22;43233;48.608;8.838;2022-12-20T05:04:35;3.50;83.90
32293;DHT22;43233;48.608;8.838;2022-12-20T05:07:01;3.50;83.90
32293;DHT22;43233;48.608;8.838;2022-12-20T05:09:26;3.50;83.80
32293;DHT22;43233;48.608;8.838;2022-12-20T05:11:52;3.60;83.70
32293;DHT22;43233;48.608;8.838;2022-12-20T05:14:17;3.60;83.70
32293;DHT22;43233;48.608;8.838;2022-12-20T05:16:43;3.60;83.70
32293;DHT22;43233;48.608;8.838;2022-12-20T05:19:09;3.60;83.80
32293;DHT22;43233;48.608;8.838;2022-12-20T05:21:34;3.70;83.90
32293;DHT22;43233;48.608;8.838;2022-12-20T05:24:18;3.70;83.50
32293;DHT22;43233;48.608;8.838;2022-12-20T05:27:03;3.70;83.40
32293;DHT22;43233;48.608;8.838;2022-12-20T05:29:28;3.80;83.20
32293;DHT22;43233;48.608;8.838;2022-12-20T05:31:54;3.80;82.50
32293;DHT22;43233;48.608;8.838;2022-12-20T05:34:20;3.80;82.50
32293;DHT22;43233;48.608;8.838;2022-12-20T05:36:46;3.90;83.00
32293;DHT22;43233;48.608;8.838;2022-12-20T05:39:11;3.90;83.20
32293;DHT22;43233;48.608;8.838;2022-12-20T05:41:38;4.20;84.50
32293;DHT22;43233;48.608;8.838;2022-12-20T05:44:06;4.80;82.30
32293;DHT22;43233;48.608;8.838;2022-12-20T05:46:32;5.20;79.50
32293;DHT22;43233;48.608;8.838;2022-12-20T05:48:57;5.60;76.90
32293;DHT22;43233;48.608;8.838;2022-12-20T05:51:23;5.90;74.90
32293;DHT22;43233;48.608;8.838;2022-12-20T05:53:49;6.00;73.70
32293;DHT22;43233;48.608;8.838;2022-12-20T05:56:15;6.20;72.80
32293;DHT22;43233;48.608;8.838;2022-12-20T05:58:40;6.30;71.60
32293;DHT22;43233;48.608;8.838;2022-12-20T06:01:07;6.40;70.70
32293;DHT22;43233;48.608;8.838;2022-12-20T06:03:33;6.50;70.40
32293;DHT22;43233;48.608;8.838;2022-12-20T06:05:59;6.60;69.80
32293;DHT22;43233;48.608;8.838;2022-12-20T06:08:24;6.60;69.80
32293;DHT22;43233;48.608;8.838;2022-12-20T06:10:50;6.60;69.30
32293;DHT22;43233;48.608;8.838;2022-12-20T06:13:16;6.70;69.30
32293;DHT22;43233;48.608;8.838;2022-12-20T06:15:42;6.70;69.10
32293;DHT22;43233;48.608;8.838;2022-12-20T06:18:08;6.80;68.60
32293;DHT22;43233;48.608;8.838;2022-12-20T06:20:34;6.80;68.10
32293;DHT22;43233;48.608;8.838;2022-12-20T06:23:01;6.90;68.20
32293;DHT22;43233;48.608;8.838;2022-12-20T06:27:53;6.80;67.20
32293;DHT22;43233;48.608;8.838;2022-12-20T06:30:19;6.80;68.40
32293;DHT22;43233;48.608;8.838;2022-12-20T06:32:44;6.80;68.20
32293;DHT22;43233;48.608;8.838;2022-12-20T06:35:10;6.70;68.50
32293;DHT22;43233;48.608;8.838;2022-12-20T06:37:36;6.70;68.80
32293;DHT22;43233;48.608;8.838;2022-12-20T06:40:06;6.60;68.90
32293;DHT22;43233;48.608;8.838;2022-12-20T06:42:31;6.60;68.80
32293;DHT22;43233;48.608;8.838;2022-12-20T06:44:57;6.60;68.70
32293;DHT22;43233;48.608;8.838;2022-12-20T06:47:22;6.60;68.80
32293;DHT22;43233;48.608;8.838;2022-12-20T06:49:48;6.60;69.10
32293;DHT22;43233;48.608;8.838;2022-12-20T06:52:14;6.60;69.10
32293;DHT22;43233;48.608;8.838;2022-12-20T06:54:39;6.60;69.00
32293;DHT22;43233;48.608;8.838;2022-12-20T06:57:05;6.60;69.10
32293;DHT22;43233;48.608;8.838;2022-12-20T06:59:31;6.60;68.90
32293;DHT22;43233;48.608;8.838;2022-12-20T07:01:57;6.60;69.00
32293;DHT22;43233;48.608;8.838;2022-12-20T07:04:22;6.60;69.10
32293;DHT22;43233;48.608;8.838;2022-12-20T07:06:48;6.50;69.30
32293;DHT22;43233;48.608;8.838;2022-12-20T07:09:13;6.50;69.20
32293;DHT22;43233;48.608;8.838;2022-12-20T07:11:39;6.50;69.70
32293;DHT22;43233;48.608;8.838;2022-12-20T07:14:07;6.50;69.70
32293;DHT22;43233;48.608;8.838;2022-12-20T07:16:33;6.50;69.90
32293;DHT22;43233;48.608;8.838;2022-12-20T07:18:58;6.50;69.70
32293;DHT22;43233;48.608;8.838;2022-12-20T07:21:24;6.60;69.50
32293;DHT22;43233;48.608;8.838;2022-12-20T07:23:50;6.60;69.30
32293;DHT22;43233;48.608;8.838;2022-12-20T07:26:15;6.70;69.10
32293;DHT22;43233;48.608;8.838;2022-12-20T07:28:42;6.60;68.70
32293;DHT22;43233;48.608;8.838;2022-12-20T07:31:08;6.60;68.90
32293;DHT22;43233;48.608;8.838;2022-12-20T07:33:34;6.60;68.90
32293;DHT22;43233;48.608;8.838;2022-12-20T07:36:05;6.60;69.10
32293;DHT22;43233;48.608;8.838;2022-12-20T07:38:31;6.60;68.80
32293;DHT22;43233;48.608;8.838;2022-12-20T07:40:57;6.70;68.70
32293;DHT22;43233;48.608;8.838;2022-12-20T07:43:22;6.70;68.60
32293;DHT22;43233;48.608;8.838;2022-12-20T07:45:53;6.80;68.30
32293;DHT22;43233;48.608;8.838;2022-12-20T07:48:19;6.80;68.10
32293;DHT22;43233;48.608;8.838;2022-12-20T07:50:44;6.80;67.90
32293;DHT22;43233;48.608;8.838;2022-12-20T07:53:10;6.80;68.10
32293;DHT22;43233;48.608;8.838;2022-12-20T07:55:37;6.80;68.30
32293;DHT22;43233;48.608;8.838;2022-12-20T07:58:05;6.80;68.30
32293;DHT22;43233;48.608;8.838;2022-12-20T08:00:34;6.70;68.30
32293;DHT22;43233;48.608;8.838;2022-12-20T08:03:14;6.70;68.30
32293;DHT22;43233;48.608;8.838;2022-12-20T08:05:44;6.70;67.60
32293;DHT22;43233;48.608;8.838;2022-12-20T08:08:10;6.60;67.60
32293;DHT22;43233;48.608;8.838;2022-12-20T08:10:37;6.60;68.00
32293;DHT22;43233;48.608;8.838;2022-12-20T08:13:04;6.50;68.00
32293;DHT22;43233;48.608;8.838;2022-12-20T08:15:30;6.50;68.30
32293;DHT22;43233;48.608;8.838;2022-12-20T08:17:56;6.60;68.20
32293;DHT22;43233;48.608;8.838;2022-12-20T08:20:22;6.60;68.40
32293;DHT22;43233;48.608;8.838;2022-12-20T08:22:48;6.70;68.30
32293;DHT22;43233;48.608;8.838;2022-12-20T08:25:13;6.70;67.80
32293;DHT22;43233;48.608;8.838;2022-12-20T08:27:39;6.70;68.10
32293;DHT22;43233;48.608;8.838;2022-12-20T08:30:05;6.60;68.60
32293;DHT22;43233;48.608;8.838;2022-12-20T08:32:32;6.50;68.80
32293;DHT22;43233;48.608;8.838;2022-12-20T08:34:58;6.40;68.80
32293;DHT22;43233;48.608;8.838;2022-12-20T08:37:24;6.40;68.90
32293;DHT22;43233;48.608;8.838;2022-12-20T08:39:49;6.40;68.80
32293;DHT22;43233;48.608;8.838;2022-12-20T08:42:15;6.40;69.00
32293;DHT22;43233;48.608;8.838;2022-12-20T08:44:40;6.30;69.70
32293;DHT22;43233;48.608;8.838;2022-12-20T08:47:06;6.30;69.90
32293;DHT22;43233;48.608;8.838;2022-12-20T08:49:32;6.30;69.90
32293;DHT22;43233;48.608;8.838;2022-12-20T08:51:57;6.30;69.90
32293;DHT22;43233;48.608;8.838;2022-12-20T08:54:23;6.30;69.80
32293;DHT22;43233;48.608;8.838;2022-12-20T08:56:49;6.30;70.00
32293;DHT22;43233;48.608;8.838;2022-12-20T08:59:14;6.20;70.40
32293;DHT22;43233;48.608;8.838;2022-12-20T09:01:40;6.20;70.60
32293;DHT22;43233;48.608;8.838;2022-12-20T09:04:05;6.10;70.60
32293;DHT22;43233;48.608;8.838;2022-12-20T09:06:33;6.10;70.50
32293;DHT22;43233;48.608;8.838;2022-12-20T09:08:59;6.20;70.30
32293;DHT22;43233;48.608;8.838;2022-12-20T09:11:25;6.20;70.00
32293;DHT22;43233;48.608;8.838;2022-12-20T09:13:54;6.30;69.70
32293;DHT22;43233;48.608;8.838;2022-12-20T09:16:27;6.20;69.80
32293;DHT22;43233;48.608;8.838;2022-12-20T09:18:54;6.10;70.70
32293;DHT22;43233;48.608;8.838;2022-12-20T09:21:21;6.20;70.50
32293;DHT22;43233;48.608;8.838;2022-12-20T09:23:49;6.20;70.70
32293;DHT22;43233;48.608;8.838;2022-12-20T09:26:16;6.20;71.10
32293;DHT22;43233;48.608;8.838;2022-12-20T09:28:43;6.20;71.10
32293;DHT22;43233;48.608;8.838;2022-12-20T09:31:14;6.20;71.40
32293;DHT22;43233;48.608;8.838;2022-12-20T09:33:41;6.20;71.50
32293;DHT22;43233;48.608;8.838;2022-12-20T09:36:10;6.30;71.80
32293;DHT22;43233;48.608;8.838;2022-12-20T09:38:36;6.40;71.20
32293;DHT22;43233;48.608;8.838;2022-12-20T09:41:03;6.40;71.20
32293;DHT22;43233;48.608;8.838;2022-12-20T09:43:31;6.40;71.40
32293;DHT22;43233;48.608;8.838;2022-12-20T09:45:58;6.40;71.40
32293;DHT22;43233;48.608;8.838;2022-12-20T09:48:31;6.50;72.30
32293;DHT22;43233;48.608;8.838;2022-12-20T09:53:58;6.50;71.10
32293;DHT22;43233;48.608;8.838;2022-12-20T09:56:35;6.50;71.30
32293;DHT22;43233;48.608;8.838;2022-12-20T09:59:13;6.50;71.60
32293;DHT22;43233;48.608;8.838;2022-12-20T10:01:44;6.60;70.50
32293;DHT22;43233;48.608;8.838;2022-12-20T10:12:08;6.60;71.10
32293;DHT22;43233;48.608;8.838;2022-12-20T10:23:08;6.60;70.10
32293;DHT22;43233;48.608;8.838;2022-12-20T10:25:35;6.60;70.60
32293;DHT22;43233;48.608;8.838;2022-12-20T10:28:04;6.60;70.20
32293;DHT22;43233;48.608;8.838;2022-12-20T10:30:34;6.60;70.50
32293;DHT22;43233;48.608;8.838;2022-12-20T10:33:00;6.50;70.80
32293;DHT22;43233;48.608;8.838;2022-12-20T10:35:30;6.50;71.00
32293;DHT22;43233;48.608;8.838;2022-12-20T10:40:35;6.50;70.40
32293;DHT22;43233;48.608;8.838;2022-12-20T10:43:03;6.50;70.80
32293;DHT22;43233;48.608;8.838;2022-12-20T10:45:40;6.50;71.10
32293;DHT22;43233;48.608;8.838;2022-12-20T10:48:32;6.50;71.00
32293;DHT22;43233;48.608;8.838;2022-12-20T10:51:19;6.60;71.00
32293;DHT22;43233;48.608;8.838;2022-12-20T10:53:54;6.80;70.40
32293;DHT22;43233;48.608;8.838;2022-12-20T10:56:24;6.90;69.80
32293;DHT22;43233;48.608;8.838;2022-12-20T11:01:20;6.90;70.00
32293;DHT22;43233;48.608;8.838;2022-12-20T11:06:44;6.80;70.30
32293;DHT22;43233;48.608;8.838;2022-12-20T11:09:24;6.80;70.50
32293;DHT22;43233;48.608;8.838;2022-12-20T11:14:22;6.80;70.90
32293;DHT22;43233;48.608;8.838;2022-12-20T11:16:50;6.70;71.00
32293;DHT22;43233;48.608;8.838;2022-12-20T11:22:45;6.70;71.40
32293;DHT22;43233;48.608;8.838;2022-12-20T11:27:59;6.70;71.70
32293;DHT22;43233;48.608;8.838;2022-12-20T11:30:42;6.70;71.80
32293;DHT22;43233;48.608;8.838;2022-12-20T11:38:42;6.80;71.50
32293;DHT22;43233;48.608;8.838;2022-12-20T11:52:32;6.90;70.40
32293;DHT22;43233;48.608;8.838;2022-12-20T11:57:53;6.90;70.20
32293;DHT22;43233;48.608;8.838;2022-12-20T12:00:19;6.90;70.20
32293;DHT22;43233;48.608;8.838;2022-12-20T12:06:04;7.00;69.80
32293;DHT22;43233;48.608;8.838;2022-12-20T12:08:47;7.00;69.80
32293;DHT22;43233;48.608;8.838;2022-12-20T12:11:23;7.00;69.40
32293;DHT22;43233;48.608;8.838;2022-12-20T12:13:52;7.00;69.40
32293;DHT22;43233;48.608;8.838;2022-12-20T12:16:48;7.00;69.40
32293;DHT22;43233;48.608;8.838;2022-12-20T12:19:16;7.00;69.60
32293;DHT22;43233;48.608;8.838;2022-12-20T12:21:49;7.10;69.50
32293;DHT22;43233;48.608;8.838;2022-12-20T12:24:28;7.10;69.30
32293;DHT22;43233;48.608;8.838;2022-12-20T12:27:00;7.10;69.30
32293;DHT22;43233;48.608;8.838;2022-12-20T12:29:28;7.10;69.00
32293;DHT22;43233;48.608;8.838;2022-12-20T12:32:05;7.10;68.90
32293;DHT22;43233;48.608;8.838;2022-12-20T12:37:20;7.10;69.70
32293;DHT22;43233;48.608;8.838;2022-12-20T12:45:25;7.10;70.00
32293;DHT22;43233;48.608;8.838;2022-12-20T12:48:04;7.10;70.10
32293;DHT22;43233;48.608;8.838;2022-12-20T12:50:36;7.10;70.00
32293;DHT22;43233;48.608;8.838;2022-12-20T12:55:55;7.10;69.90
32293;DHT22;43233;48.608;8.838;2022-12-20T13:11:32;7.30;67.70
32293;DHT22;43233;48.608;8.838;2022-12-20T13:16:49;7.40;67.30
32293;DHT22;43233;48.608;8.838;2022-12-20T13:19:17;7.30;67.90
32293;DHT22;43233;48.608;8.838;2022-12-20T13:21:48;7.30;68.20
32293;DHT22;43233;48.608;8.838;2022-12-20T13:27:26;7.20;68.60
32293;DHT22;43233;48.608;8.838;2022-12-20T13:48:49;7.00;69.10
32293;DHT22;43233;48.608;8.838;2022-12-20T13:51:25;7.10;68.40
32293;DHT22;43233;48.608;8.838;2022-12-20T13:54:05;7.00;69.00
32293;DHT22;43233;48.608;8.838;2022-12-20T13:59:13;7.00;69.50
32293;DHT22;43233;48.608;8.838;2022-12-20T14:01:53;7.10;69.60
32293;DHT22;43233;48.608;8.838;2022-12-20T14:04:20;7.10;69.50
32293;DHT22;43233;48.608;8.838;2022-12-20T14:06:55;7.20;69.40
32293;DHT22;43233;48.608;8.838;2022-12-20T14:09:33;7.10;69.40
32293;DHT22;43233;48.608;8.838;2022-12-20T14:12:14;7.10;69.50
32293;DHT22;43233;48.608;8.838;2022-12-20T14:14:45;7.20;69.30
32293;DHT22;43233;48.608;8.838;2022-12-20T14:17:21;7.20;69.20
32293;DHT22;43233;48.608;8.838;2022-12-20T14:20:00;7.20;69.10
32293;DHT22;43233;48.608;8.838;2022-12-20T14:22:26;7.10;69.30
32293;DHT22;43233;48.608;8.838;2022-12-20T14:24:51;7.10;69.60
32293;DHT22;43233;48.608;8.838;2022-12-20T14:27:18;7.10;69.70
32293;DHT22;43233;48.608;8.838;2022-12-20T14:29:44;7.10;69.40
32293;DHT22;43233;48.608;8.838;2022-12-20T14:32:17;7.10;69.50
32293;DHT22;43233;48.608;8.838;2022-12-20T14:34:44;7.00;69.20
32293;DHT22;43233;48.608;8.838;2022-12-20T14:37:30;7.00;69.40
32293;DHT22;43233;48.608;8.838;2022-12-20T14:42:40;7.00;70.00
32293;DHT22;43233;48.608;8.838;2022-12-20T14:45:20;6.90;70.00
32293;DHT22;43233;48.608;8.838;2022-12-20T14:47:50;6.90;70.10
32293;DHT22;43233;48.608;8.838;2022-12-20T14:50:29;6.90;70.20
32293;DHT22;43233;48.608;8.838;2022-12-20T14:52:55;6.90;70.50
32293;DHT22;43233;48.608;8.838;2022-12-20T14:55:23;6.80;70.70
32293;DHT22;43233;48.608;8.838;2022-12-20T14:57:54;6.80;70.80
32293;DHT22;43233;48.608;8.838;2022-12-20T15:00:21;6.80;70.90
32293;DHT22;43233;48.608;8.838;2022-12-20T15:05:35;6.80;70.90
32293;DHT22;43233;48.608;8.838;2022-12-20T15:08:24;6.80;70.90
32293;DHT22;43233;48.608;8.838;2022-12-20T15:13:21;6.60;71.80
32293;DHT22;43233;48.608;8.838;2022-12-20T15:15:47;6.60;72.20
32293;DHT22;43233;48.608;8.838;2022-12-20T15:18:18;6.50;73.30
32293;DHT22;43233;48.608;8.838;2022-12-20T15:20:46;6.50;72.50
32293;DHT22;43233;48.608;8.838;2022-12-20T15:23:18;6.60;72.50
32293;DHT22;43233;48.608;8.838;2022-12-20T15:25:44;6.60;72.60
32293;DHT22;43233;48.608;8.838;2022-12-20T15:28:14;6.60;72.50
32293;DHT22;43233;48.608;8.838;2022-12-20T15:30:40;6.60;72.20
32293;DHT22;43233;48.608;8.838;2022-12-20T15:33:11;6.60;72.20
32293;DHT22;43233;48.608;8.838;2022-12-20T15:35:39;6.60;72.50
32293;DHT22;43233;48.608;8.838;2022-12-20T15:38:05;6.60;72.70
32293;DHT22;43233;48.608;8.838;2022-12-20T15:40:30;6.60;72.60
32293;DHT22;43233;48.608;8.838;2022-12-20T15:42:56;6.60;72.60
32293;DHT22;43233;48.608;8.838;2022-12-20T15:45:22;6.70;72.20
32293;DHT22;43233;48.608;8.838;2022-12-20T15:47:48;6.60;71.70
32293;DHT22;43233;48.608;8.838;2022-12-20T15:50:14;6.60;71.90
32293;DHT22;43233;48.608;8.838;2022-12-20T15:52:40;6.70;71.70
32293;DHT22;43233;48.608;8.838;2022-12-20T15:55:08;6.70;71.50
32293;DHT22;43233;48.608;8.838;2022-12-20T15:57:34;6.70;71.50
32293;DHT22;43233;48.608;8.838;2022-12-20T16:00:00;6.70;71.70
32293;DHT22;43233;48.608;8.838;2022-12-20T16:02:27;6.80;71.50
32293;DHT22;43233;48.608;8.838;2022-12-20T16:04:53;6.80;71.40
32293;DHT22;43233;48.608;8.838;2022-12-20T16:07:19;6.80;71.20
32293;DHT22;43233;48.608;8.838;2022-12-20T16:09:45;6.80;71.20
32293;DHT22;43233;48.608;8.838;2022-12-20T16:12:17;6.80;70.90
32293;DHT22;43233;48.608;8.838;2022-12-20T16:14:43;6.80;70.80
32293;DHT22;43233;48.608;8.838;2022-12-20T16:17:13;6.80;70.80
32293;DHT22;43233;48.608;8.838;2022-12-20T16:19:39;6.80;71.00
32293;DHT22;43233;48.608;8.838;2022-12-20T16:22:08;6.70;71.90
32293;DHT22;43233;48.608;8.838;2022-12-20T16:24:36;6.70;72.40
32293;DHT22;43233;48.608;8.838;2022-12-20T16:27:01;6.70;72.30
32293;DHT22;43233;48.608;8.838;2022-12-20T16:29:27;6.70;72.00
32293;DHT22;43233;48.608;8.838;2022-12-20T16:31:53;6.70;72.00
32293;DHT22;43233;48.608;8.838;2022-12-20T16:34:18;6.70;72.00
32293;DHT22;43233;48.608;8.838;2022-12-20T16:36:45;6.70;72.10
32293;DHT22;43233;48.608;8.838;2022-12-20T16:39:11;6.70;72.10
32293;DHT22;43233;48.608;8.838;2022-12-20T16:41:39;6.70;72.10
32293;DHT22;43233;48.608;8.838;2022-12-20T16:44:13;6.70;71.90
32293;DHT22;43233;48.608;8.838;2022-12-20T16:46:40;6.70;71.80
32293;DHT22;43233;48.608;8.838;2022-12-20T16:49:08;6.70;71.40
32293;DHT22;43233;48.608;8.838;2022-12-20T16:51:42;6.70;71.40
32293;DHT22;43233;48.608;8.838;2022-12-20T16:54:15;6.70;71.40
32293;DHT22;43233;48.608;8.838;2022-12-20T16:56:41;6.80;71.40
32293;DHT22;43233;48.608;8.838;2022-12-20T16:59:08;7.00;71.10
32293;DHT22;43233;48.608;8.838;2022-12-20T17:01:37;7.30;69.50
32293;DHT22;43233;48.608;8.838;2022-12-20T17:04:04;7.50;68.30
32293;DHT22;43233;48.608;8.838;2022-12-20T17:06:30;7.80;67.30
32293;DHT22;43233;48.608;8.838;2022-12-20T17:08:56;7.90;66.60
32293;DHT22;43233;48.608;8.838;2022-12-20T17:11:24;8.10;65.30
32293;DHT22;43233;48.608;8.838;2022-12-20T17:13:51;8.10;65.40
32293;DHT22;43233;48.608;8.838;2022-12-20T17:16:18;8.10;65.40
32293;DHT22;43233;48.608;8.838;2022-12-20T17:18:46;8.10;65.40
32293;DHT22;43233;48.608;8.838;2022-12-20T17:23:48;8.00;65.60
32293;DHT22;43233;48.608;8.838;2022-12-20T17:26:16;7.80;65.90
32293;DHT22;43233;48.608;8.838;2022-12-20T17:28:42;7.80;65.80
32293;DHT22;43233;48.608;8.838;2022-12-20T17:31:29;7.90;65.70
32293;DHT22;43233;48.608;8.838;2022-12-20T17:33:56;7.90;65.30
32293;DHT22;43233;48.608;8.838;2022-12-20T17:36:23;7.80;65.80
32293;DHT22;43233;48.608;8.838;2022-12-20T17:38:49;7.80;65.80
32293;DHT22;43233;48.608;8.838;2022-12-20T17:41:29;7.90;65.90
32293;DHT22;43233;48.608;8.838;2022-12-20T17:43:56;7.80;66.20
32293;DHT22;43233;48.608;8.838;2022-12-20T17:46:23;7.80;66.30
32293;DHT22;43233;48.608;8.838;2022-12-20T17:48:49;7.80;66.00
32293;DHT22;43233;48.608;8.838;2022-12-20T17:51:20;7.80;66.10
32293;DHT22;43233;48.608;8.838;2022-12-20T17:53:51;7.80;66.10
32293;DHT22;43233;48.608;8.838;2022-12-20T17:56:22;7.70;66.10
32293;DHT22;43233;48.608;8.838;2022-12-20T17:58:48;7.70;66.10
32293;DHT22;43233;48.608;8.838;2022-12-20T18:01:25;7.70;66.60
32293;DHT22;43233;48.608;8.838;2022-12-20T18:03:53;7.60;66.50
32293;DHT22;43233;48.608;8.838;2022-12-20T18:06:19;7.50;66.60
32293;DHT22;43233;48.608;8.838;2022-12-20T18:08:49;7.40;66.50
32293;DHT22;43233;48.608;8.838;2022-12-20T18:11:15;7.30;67.00
32293;DHT22;43233;48.608;8.838;2022-12-20T18:13:42;7.20;67.40
32293;DHT22;43233;48.608;8.838;2022-12-20T18:16:09;7.20;67.90
32293;DHT22;43233;48.608;8.838;2022-12-20T18:18:35;7.10;68.10
32293;DHT22;43233;48.608;8.838;2022-12-20T18:21:03;7.00;68.40